sensor_id;sensor_type;location;lat;lon;timestamp;temperature;humidity
40077;DHT22;25777;47.824;18.982;2022-09-09T00:00:44;17.10;99.90
40077;DHT22;25777;47.824;18.982;2022-09-09T00:03:14;17.10;99.90
40077;DHT22;25777;47.824;18.982;2022-09-09T00:08:56;17.10;99.90
40077;DHT22;25777;47.824;18.982;2022-09-09T00:11:17;16.90;99.90
40077;DHT22;25777;47.824;18.982;2022-09-09T00:13:48;17.00;99.90
40077;DHT22;25777;47.824;18.982;2022-09-09T00:16:17;17.10;99.90
40077;DHT22;25777;47.824;18.982;2022-09-09T00:21:19;17.10;99.90
40077;DHT22;25777;47.824;18.982;2022-09-09T00:23:55;17.00;99.90
40077;DHT22;25777;47.824;18.982;2022-09-09T00:28:52;16.80;99.90
40077;DHT22;25777;47.824;18.982;2022-09-09T00:31:30;16.80;99.90
40077;DHT22;25777;47.824;18.982;2022-09-09T00:34:19;16.80;99.90
40077;DHT22;25777;47.824;18.982;2022-09-09T00:36:42;16.80;99.90
40077;DHT22;25777;47.824;18.982;2022-09-09T00:39:44;16.80;99.90
40077;DHT22;25777;47.824;18.982;2022-09-09T00:42:16;16.80;99.90
40077;DHT22;25777;47.824;18.982;2022-09-09T00:45:05;16.80;99.90
40077;DHT22;25777;47.824;18.982;2022-09-09T00:52:54;16.80;99.90
40077;DHT22;25777;47.824;18.982;2022-09-09T00:55:34;16.80;99.90
40077;DHT22;25777;47.824;18.982;2022-09-09T00:58:02;16.60;99.90
40077;DHT22;25777;47.824;18.982;2022-09-09T01:00:30;16.50;99.90
40077;DHT22;25777;47.824;18.982;2022-09-09T01:02:59;16.50;99.90
40077;DHT22;25777;47.824;18.982;2022-09-09T01:08:17;16.60;99.90
40077;DHT22;25777;47.824;18.982;2022-09-09T01:10:52;16.60;99.90
40077;DHT22;25777;47.824;18.982;2022-09-09T01:13:22;16.50;99.90
40077;DHT22;25777;47.824;18.982;2022-09-09T01:15:49;16.60;99.90
40077;DHT22;25777;47.824;18.982;2022-09-09T01:18:20;16.50;99.90
40077;DHT22;25777;47.824;18.982;2022-09-09T01:21:09;16.60;99.90
40077;DHT22;25777;47.824;18.982;2022-09-09T01:26:13;16.60;99.90
40077;DHT22;25777;47.824;18.982;2022-09-09T01:28:42;16.60;99.90
40077;DHT22;25777;47.824;18.982;2022-09-09T01:31:11;16.40;99.90
40077;DHT22;25777;47.824;18.982;2022-09-09T01:33:39;16.50;99.90
40077;DHT22;25777;47.824;18.982;2022-09-09T01:38:31;16.40;99.90
40077;DHT22;25777;47.824;18.982;2022-09-09T01:40:58;16.40;99.90
40077;DHT22;25777;47.824;18.982;2022-09-09T01:43:24;16.50;99.90
40077;DHT22;25777;47.824;18.982;2022-09-09T01:45:53;16.40;99.90
40077;DHT22;25777;47.824;18.982;2022-09-09T01:48:20;16.50;99.90
40077;DHT22;25777;47.824;18.982;2022-09-09T01:50:46;16.50;99.90
40077;DHT22;25777;47.824;18.982;2022-09-09T01:53:12;16.50;99.90
40077;DHT22;25777;47.824;18.982;2022-09-09T01:55:40;16.50;99.90
40077;DHT22;25777;47.824;18.982;2022-09-09T01:58:11;16.50;99.90
40077;DHT22;25777;47.824;18.982;2022-09-09T02:00:41;16.50;99.90
40077;DHT22;25777;47.824;18.982;2022-09-09T02:03:21;16.50;99.90
40077;DHT22;25777;47.824;18.982;2022-09-09T02:05:52;16.50;99.90
40077;DHT22;25777;47.824;18.982;2022-09-09T02:08:23;16.40;99.90
40077;DHT22;25777;47.824;18.982;2022-09-09T02:13:35;16.40;99.90
40077;DHT22;25777;47.824;18.982;2022-09-09T02:16:04;16.40;99.90
40077;DHT22;25777;47.824;18.982;2022-09-09T02:19:32;16.40;99.90
40077;DHT22;25777;47.824;18.982;2022-09-09T02:21:28;16.50;99.90
40077;DHT22;25777;47.824;18.982;2022-09-09T02:23:56;16.50;99.90
40077;DHT22;25777;47.824;18.982;2022-09-09T02:26:30;16.50;99.90
40077;DHT22;25777;47.824;18.982;2022-09-09T02:28:57;16.40;99.90
40077;DHT22;25777;47.824;18.982;2022-09-09T02:31:25;16.40;99.90
40077;DHT22;25777;47.824;18.982;2022-09-09T02:33:52;16.50;99.90
40077;DHT22;25777;47.824;18.982;2022-09-09T02:36:19;16.40;99.90
40077;DHT22;25777;47.824;18.982;2022-09-09T02:38:47;16.30;99.90
40077;DHT22;25777;47.824;18.982;2022-09-09T02:41:19;16.30;99.90
40077;DHT22;25777;47.824;18.982;2022-09-09T02:43:47;16.20;99.90
40077;DHT22;25777;47.824;18.982;2022-09-09T02:49:02;16.10;99.90
40077;DHT22;25777;47.824;18.982;2022-09-09T02:54:32;16.10;99.90
40077;DHT22;25777;47.824;18.982;2022-09-09T02:57:09;16.10;99.90
40077;DHT22;25777;47.824;18.982;2022-09-09T02:59:36;16.10;99.90
40077;DHT22;25777;47.824;18.982;2022-09-09T03:02:02;16.00;99.90
40077;DHT22;25777;47.824;18.982;2022-09-09T03:04:28;16.00;99.90
40077;DHT22;25777;47.824;18.982;2022-09-09T03:06:55;16.10;99.90
40077;DHT22;25777;47.824;18.982;2022-09-09T03:09:21;16.10;99.90
40077;DHT22;25777;47.824;18.982;2022-09-09T03:11:49;16.10;99.90
40077;DHT22;25777;47.824;18.982;2022-09-09T03:14:15;16.10;99.90
40077;DHT22;25777;47.824;18.982;2022-09-09T03:16:41;16.10;99.90
40077;DHT22;25777;47.824;18.982;2022-09-09T03:19:08;16.10;99.90
40077;DHT22;25777;47.824;18.982;2022-09-09T03:21:34;16.10;99.90
40077;DHT22;25777;47.824;18.982;2022-09-09T03:23:59;16.10;99.90
40077;DHT22;25777;47.824;18.982;2022-09-09T03:26:25;16.10;99.90
40077;DHT22;25777;47.824;18.982;2022-09-09T03:28:51;16.10;99.90
40077;DHT22;25777;47.824;18.982;2022-09-09T03:31:17;16.00;99.90
40077;DHT22;25777;47.824;18.982;2022-09-09T03:33:45;15.90;99.90
40077;DHT22;25777;47.824;18.982;2022-09-09T03:36:10;15.90;99.90
40077;DHT22;25777;47.824;18.982;2022-09-09T03:38:36;15.90;99.90
40077;DHT22;25777;47.824;18.982;2022-09-09T03:41:02;15.90;99.90
40077;DHT22;25777;47.824;18.982;2022-09-09T03:43:28;15.90;99.90
40077;DHT22;25777;47.824;18.982;2022-09-09T03:45:54;15.80;99.90
40077;DHT22;25777;47.824;18.982;2022-09-09T03:48:24;15.80;99.90
40077;DHT22;25777;47.824;18.982;2022-09-09T03:50:51;15.80;99.90
40077;DHT22;25777;47.824;18.982;2022-09-09T03:53:18;15.90;99.90
40077;DHT22;25777;47.824;18.982;2022-09-09T03:55:45;15.80;99.90
40077;DHT22;25777;47.824;18.982;2022-09-09T03:58:11;15.80;99.90
40077;DHT22;25777;47.824;18.982;2022-09-09T04:00:37;15.70;99.90
40077;DHT22;25777;47.824;18.982;2022-09-09T04:03:10;15.70;99.90
40077;DHT22;25777;47.824;18.982;2022-09-09T04:05:39;15.70;99.90
40077;DHT22;25777;47.824;18.982;2022-09-09T04:08:08;15.70;99.90
40077;DHT22;25777;47.824;18.982;2022-09-09T04:10:34;15.70;99.90
40077;DHT22;25777;47.824;18.982;2022-09-09T04:13:03;15.70;99.90
40077;DHT22;25777;47.824;18.982;2022-09-09T04:15:29;15.70;99.90
40077;DHT22;25777;47.824;18.982;2022-09-09T04:17:54;15.70;99.90
40077;DHT22;25777;47.824;18.982;2022-09-09T04:20:20;15.70;99.90
40077;DHT22;25777;47.824;18.982;2022-09-09T04:22:47;15.60;99.90
40077;DHT22;25777;47.824;18.982;2022-09-09T04:25:13;15.50;99.90
40077;DHT22;25777;47.824;18.982;2022-09-09T04:27:39;15.50;99.90
40077;DHT22;25777;47.824;18.982;2022-09-09T04:30:05;15.60;99.90
40077;DHT22;25777;47.824;18.982;2022-09-09T04:32:32;15.50;99.90
40077;DHT22;25777;47.824;18.982;2022-09-09T04:34:58;15.50;99.90
40077;DHT22;25777;47.824;18.982;2022-09-09T04:37:24;15.60;99.90
40077;DHT22;25777;47.824;18.982;2022-09-09T04:39:50;15.60;99.90
40077;DHT22;25777;47.824;18.982;2022-09-09T04:42:16;15.60;99.90
40077;DHT22;25777;47.824;18.982;2022-09-09T04:44:43;15.60;99.90
40077;DHT22;25777;47.824;18.982;2022-09-09T04:47:09;15.50;99.90
40077;DHT22;25777;47.824;18.982;2022-09-09T04:49:35;15.60;99.90
40077;DHT22;25777;47.824;18.982;2022-09-09T04:52:02;15.60;99.90
40077;DHT22;25777;47.824;18.982;2022-09-09T04:54:27;15.60;99.90
40077;DHT22;25777;47.824;18.982;2022-09-09T04:56:53;15.80;99.90
40077;DHT22;25777;47.824;18.982;2022-09-09T04:59:20;15.80;99.90
40077;DHT22;25777;47.824;18.982;2022-09-09T05:01:47;15.90;99.90
40077;DHT22;25777;47.824;18.982;2022-09-09T05:04:13;16.00;99.90
40077;DHT22;25777;47.824;18.982;2022-09-09T05:06:40;16.10;99.90
40077;DHT22;25777;47.824;18.982;2022-09-09T05:09:08;16.10;99.90
40077;DHT22;25777;47.824;18.982;2022-09-09T05:11:33;16.10;99.90
40077;DHT22;25777;47.824;18.982;2022-09-09T05:14:02;16.10;99.90
40077;DHT22;25777;47.824;18.982;2022-09-09T05:16:28;16.00;99.90
40077;DHT22;25777;47.824;18.982;2022-09-09T05:18:54;16.00;99.90
40077;DHT22;25777;47.824;18.982;2022-09-09T05:21:20;16.10;99.90
40077;DHT22;25777;47.824;18.982;2022-09-09T05:23:46;16.10;99.90
40077;DHT22;25777;47.824;18.982;2022-09-09T05:26:13;16.10;99.90
40077;DHT22;25777;47.824;18.982;2022-09-09T05:28:39;16.20;99.90
40077;DHT22;25777;47.824;18.982;2022-09-09T05:31:06;16.20;99.90
40077;DHT22;25777;47.824;18.982;2022-09-09T05:33:36;16.30;99.90
40077;DHT22;25777;47.824;18.982;2022-09-09T05:36:04;16.30;99.90
40077;DHT22;25777;47.824;18.982;2022-09-09T05:38:30;16.40;99.90
40077;DHT22;25777;47.824;18.982;2022-09-09T05:40:56;16.40;99.90
40077;DHT22;25777;47.824;18.982;2022-09-09T05:43:22;16.40;99.90
40077;DHT22;25777;47.824;18.982;2022-09-09T05:45:48;16.50;99.90
40077;DHT22;25777;47.824;18.982;2022-09-09T05:48:14;16.50;99.90
40077;DHT22;25777;47.824;18.982;2022-09-09T05:50:41;16.60;99.90
40077;DHT22;25777;47.824;18.982;2022-09-09T05:53:08;16.60;99.90
40077;DHT22;25777;47.824;18.982;2022-09-09T05:55:34;16.70;99.90
40077;DHT22;25777;47.824;18.982;2022-09-09T05:58:00;16.70;99.90
40077;DHT22;25777;47.824;18.982;2022-09-09T06:00:26;16.80;99.90
40077;DHT22;25777;47.824;18.982;2022-09-09T06:02:52;16.90;99.90
40077;DHT22;25777;47.824;18.982;2022-09-09T06:05:19;17.00;99.90
40077;DHT22;25777;47.824;18.982;2022-09-09T06:07:44;17.00;99.90
40077;DHT22;25777;47.824;18.982;2022-09-09T06:10:11;17.00;99.90
40077;DHT22;25777;47.824;18.982;2022-09-09T06:12:39;17.00;99.90
40077;DHT22;25777;47.824;18.982;2022-09-09T06:15:05;17.10;99.90
40077;DHT22;25777;47.824;18.982;2022-09-09T06:17:31;17.10;99.90
40077;DHT22;25777;47.824;18.982;2022-09-09T06:19:56;17.10;99.90
40077;DHT22;25777;47.824;18.982;2022-09-09T06:22:23;17.10;99.90
40077;DHT22;25777;47.824;18.982;2022-09-09T06:24:48;17.10;99.90
40077;DHT22;25777;47.824;18.982;2022-09-09T06:27:14;17.20;99.90
40077;DHT22;25777;47.824;18.982;2022-09-09T06:29:40;17.30;99.90
40077;DHT22;25777;47.824;18.982;2022-09-09T06:32:06;17.30;99.90
40077;DHT22;25777;47.824;18.982;2022-09-09T06:34:34;17.30;99.90
40077;DHT22;25777;47.824;18.982;2022-09-09T06:37:00;17.40;99.90
40077;DHT22;25777;47.824;18.982;2022-09-09T06:39:26;17.50;99.90
40077;DHT22;25777;47.824;18.982;2022-09-09T06:41:52;17.50;99.90
40077;DHT22;25777;47.824;18.982;2022-09-09T06:44:18;17.50;99.90
40077;DHT22;25777;47.824;18.982;2022-09-09T06:46:44;17.60;99.90
40077;DHT22;25777;47.824;18.982;2022-09-09T06:49:13;17.70;99.90
40077;DHT22;25777;47.824;18.982;2022-09-09T06:51:40;17.90;99.90
40077;DHT22;25777;47.824;18.982;2022-09-09T06:54:09;17.80;99.90
40077;DHT22;25777;47.824;18.982;2022-09-09T06:56:35;17.90;99.90
40077;DHT22;25777;47.824;18.982;2022-09-09T06:59:02;18.00;99.90
40077;DHT22;25777;47.824;18.982;2022-09-09T07:01:29;17.90;99.90
40077;DHT22;25777;47.824;18.982;2022-09-09T07:03:57;17.90;99.90
40077;DHT22;25777;47.824;18.982;2022-09-09T07:08:50;18.00;99.90
40077;DHT22;25777;47.824;18.982;2022-09-09T07:11:16;18.10;99.90
40077;DHT22;25777;47.824;18.982;2022-09-09T07:13:41;18.20;99.90
40077;DHT22;25777;47.824;18.982;2022-09-09T07:16:08;18.50;99.90
40077;DHT22;25777;47.824;18.982;2022-09-09T07:18:35;18.70;99.90
40077;DHT22;25777;47.824;18.982;2022-09-09T07:21:01;18.70;99.90
40077;DHT22;25777;47.824;18.982;2022-09-09T07:23:27;18.80;99.90
40077;DHT22;25777;47.824;18.982;2022-09-09T07:25:53;18.90;99.90
40077;DHT22;25777;47.824;18.982;2022-09-09T07:28:20;19.00;99.90
40077;DHT22;25777;47.824;18.982;2022-09-09T07:30:59;19.10;99.90
40077;DHT22;25777;47.824;18.982;2022-09-09T07:33:26;19.10;99.90
40077;DHT22;25777;47.824;18.982;2022-09-09T07:35:52;19.30;99.90
40077;DHT22;25777;47.824;18.982;2022-09-09T07:38:19;19.30;99.90
40077;DHT22;25777;47.824;18.982;2022-09-09T07:40:45;19.50;99.90
40077;DHT22;25777;47.824;18.982;2022-09-09T07:43:10;19.50;99.90
40077;DHT22;25777;47.824;18.982;2022-09-09T07:45:37;19.70;99.90
40077;DHT22;25777;47.824;18.982;2022-09-09T07:48:03;19.70;99.90
40077;DHT22;25777;47.824;18.982;2022-09-09T07:50:30;19.80;99.90
40077;DHT22;25777;47.824;18.982;2022-09-09T07:52:56;20.00;99.90
40077;DHT22;25777;47.824;18.982;2022-09-09T07:55:22;20.20;99.90
40077;DHT22;25777;47.824;18.982;2022-09-09T07:57:51;20.30;99.90
40077;DHT22;25777;47.824;18.982;2022-09-09T08:00:17;20.60;99.90
40077;DHT22;25777;47.824;18.982;2022-09-09T08:02:44;20.70;99.90
40077;DHT22;25777;47.824;18.982;2022-09-09T08:05:12;20.80;99.90
40077;DHT22;25777;47.824;18.982;2022-09-09T08:07:38;20.90;99.90
40077;DHT22;25777;47.824;18.982;2022-09-09T08:10:04;21.10;99.90
40077;DHT22;25777;47.824;18.982;2022-09-09T08:12:30;21.20;99.90
40077;DHT22;25777;47.824;18.982;2022-09-09T08:14:55;21.30;99.90
40077;DHT22;25777;47.824;18.982;2022-09-09T08:17:21;21.40;99.90
40077;DHT22;25777;47.824;18.982;2022-09-09T08:19:46;21.40;99.90
40077;DHT22;25777;47.824;18.982;2022-09-09T08:22:12;21.50;99.90
40077;DHT22;25777;47.824;18.982;2022-09-09T08:24:38;21.50;99.90
40077;DHT22;25777;47.824;18.982;2022-09-09T08:27:04;21.50;99.90
40077;DHT22;25777;47.824;18.982;2022-09-09T08:29:30;21.90;99.90
40077;DHT22;25777;47.824;18.982;2022-09-09T08:31:57;21.90;99.90
40077;DHT22;25777;47.824;18.982;2022-09-09T08:34:23;22.10;99.90
40077;DHT22;25777;47.824;18.982;2022-09-09T08:36:51;21.90;99.90
40077;DHT22;25777;47.824;18.982;2022-09-09T08:39:18;22.10;99.90
40077;DHT22;25777;47.824;18.982;2022-09-09T08:47:16;22.30;99.90
40077;DHT22;25777;47.824;18.982;2022-09-09T08:52:29;22.80;99.90
40077;DHT22;25777;47.824;18.982;2022-09-09T08:57:41;23.20;99.90
40077;DHT22;25777;47.824;18.982;2022-09-09T09:00:09;23.10;99.90
40077;DHT22;25777;47.824;18.982;2022-09-09T09:05:19;23.50;99.90
40077;DHT22;25777;47.824;18.982;2022-09-09T09:07:59;23.70;99.90
40077;DHT22;25777;47.824;18.982;2022-09-09T09:13:01;24.10;99.90
40077;DHT22;25777;47.824;18.982;2022-09-09T09:15:31;24.10;99.90
40077;DHT22;25777;47.824;18.982;2022-09-09T09:18:02;24.20;99.90
40077;DHT22;25777;47.824;18.982;2022-09-09T09:20:49;24.30;99.90
40077;DHT22;25777;47.824;18.982;2022-09-09T09:23:24;24.40;99.90
40077;DHT22;25777;47.824;18.982;2022-09-09T09:25:50;24.40;99.90
40077;DHT22;25777;47.824;18.982;2022-09-09T09:28:25;24.50;99.90
40077;DHT22;25777;47.824;18.982;2022-09-09T09:31:04;24.60;99.90
40077;DHT22;25777;47.824;18.982;2022-09-09T09:36:06;25.10;99.90
40077;DHT22;25777;47.824;18.982;2022-09-09T09:38:34;25.30;99.90
40077;DHT22;25777;47.824;18.982;2022-09-09T09:41:00;25.00;99.90
40077;DHT22;25777;47.824;18.982;2022-09-09T09:43:30;24.90;99.60
40077;DHT22;25777;47.824;18.982;2022-09-09T09:45:56;25.20;99.90
40077;DHT22;25777;47.824;18.982;2022-09-09T09:48:23;25.40;98.60
40077;DHT22;25777;47.824;18.982;2022-09-09T09:50:53;25.60;98.90
40077;DHT22;25777;47.824;18.982;2022-09-09T09:53:26;25.70;99.90
40077;DHT22;25777;47.824;18.982;2022-09-09T09:55:57;25.80;98.20
40077;DHT22;25777;47.824;18.982;2022-09-09T09:58:24;25.70;99.90
40077;DHT22;25777;47.824;18.982;2022-09-09T10:00:51;26.10;97.20
40077;DHT22;25777;47.824;18.982;2022-09-09T10:03:31;26.20;95.70
40077;DHT22;25777;47.824;18.982;2022-09-09T10:05:57;26.30;96.80
40077;DHT22;25777;47.824;18.982;2022-09-09T10:08:24;26.30;93.40
40077;DHT22;25777;47.824;18.982;2022-09-09T10:10:52;26.40;94.20
40077;DHT22;25777;47.824;18.982;2022-09-09T10:21:19;27.40;91.40
40077;DHT22;25777;47.824;18.982;2022-09-09T10:24:02;27.30;93.80
40077;DHT22;25777;47.824;18.982;2022-09-09T10:27:18;27.10;92.10
40077;DHT22;25777;47.824;18.982;2022-09-09T10:32:10;27.20;90.40
40077;DHT22;25777;47.824;18.982;2022-09-09T10:34:58;27.60;90.20
40077;DHT22;25777;47.824;18.982;2022-09-09T10:40:01;27.40;87.00
40077;DHT22;25777;47.824;18.982;2022-09-09T10:42:29;27.40;90.40
40077;DHT22;25777;47.824;18.982;2022-09-09T10:47:57;26.60;85.80
40077;DHT22;25777;47.824;18.982;2022-09-09T10:53:14;26.30;86.40
40077;DHT22;25777;47.824;18.982;2022-09-09T10:55:43;26.50;87.50
40077;DHT22;25777;47.824;18.982;2022-09-09T10:58:13;26.40;86.20
40077;DHT22;25777;47.824;18.982;2022-09-09T11:00:41;26.10;87.50
40077;DHT22;25777;47.824;18.982;2022-09-09T11:03:11;26.00;88.20
40077;DHT22;25777;47.824;18.982;2022-09-09T11:05:49;25.90;84.70
40077;DHT22;25777;47.824;18.982;2022-09-09T11:08:21;25.70;84.80
40077;DHT22;25777;47.824;18.982;2022-09-09T11:10:50;25.70;86.80
40077;DHT22;25777;47.824;18.982;2022-09-09T11:15:57;26.80;83.80
40077;DHT22;25777;47.824;18.982;2022-09-09T11:18:25;27.30;79.90
40077;DHT22;25777;47.824;18.982;2022-09-09T11:20:57;27.30;79.00
40077;DHT22;25777;47.824;18.982;2022-09-09T11:23:25;27.30;75.90
40077;DHT22;25777;47.824;18.982;2022-09-09T11:25:56;27.20;76.80
40077;DHT22;25777;47.824;18.982;2022-09-09T11:28:41;27.50;78.70
40077;DHT22;25777;47.824;18.982;2022-09-09T11:34:03;28.10;74.80
40077;DHT22;25777;47.824;18.982;2022-09-09T11:41:41;28.00;75.10
40077;DHT22;25777;47.824;18.982;2022-09-09T11:44:15;27.70;75.00
40077;DHT22;25777;47.824;18.982;2022-09-09T11:46:49;27.50;75.00
40077;DHT22;25777;47.824;18.982;2022-09-09T11:49:29;27.20;72.90
40077;DHT22;25777;47.824;18.982;2022-09-09T11:54:51;26.80;73.90
40077;DHT22;25777;47.824;18.982;2022-09-09T11:57:22;26.60;76.10
40077;DHT22;25777;47.824;18.982;2022-09-09T11:59:50;26.40;77.30
40077;DHT22;25777;47.824;18.982;2022-09-09T12:02:24;26.20;74.40
40077;DHT22;25777;47.824;18.982;2022-09-09T12:07:23;26.50;76.50
40077;DHT22;25777;47.824;18.982;2022-09-09T12:10:36;26.60;76.90
40077;DHT22;25777;47.824;18.982;2022-09-09T12:12:37;26.60;77.50
40077;DHT22;25777;47.824;18.982;2022-09-09T12:17:42;26.80;74.10
40077;DHT22;25777;47.824;18.982;2022-09-09T12:33:11;26.40;78.00
40077;DHT22;25777;47.824;18.982;2022-09-09T12:35:41;26.30;79.30
40077;DHT22;25777;47.824;18.982;2022-09-09T12:38:10;25.90;79.30
40077;DHT22;25777;47.824;18.982;2022-09-09T12:40:39;25.90;78.20
40077;DHT22;25777;47.824;18.982;2022-09-09T12:43:18;26.20;76.30
40077;DHT22;25777;47.824;18.982;2022-09-09T12:45:45;26.40;77.00
40077;DHT22;25777;47.824;18.982;2022-09-09T12:48:11;26.40;78.50
40077;DHT22;25777;47.824;18.982;2022-09-09T12:50:44;26.30;79.10
40077;DHT22;25777;47.824;18.982;2022-09-09T12:53:33;26.20;78.50
40077;DHT22;25777;47.824;18.982;2022-09-09T12:55:58;26.20;79.10
40077;DHT22;25777;47.824;18.982;2022-09-09T12:58:25;26.10;80.10
40077;DHT22;25777;47.824;18.982;2022-09-09T13:00:53;25.80;81.10
40077;DHT22;25777;47.824;18.982;2022-09-09T13:03:21;25.90;79.50
40077;DHT22;25777;47.824;18.982;2022-09-09T13:05:47;26.00;83.10
40077;DHT22;25777;47.824;18.982;2022-09-09T13:08:13;25.90;82.00
40077;DHT22;25777;47.824;18.982;2022-09-09T13:10:47;25.70;83.40
40077;DHT22;25777;47.824;18.982;2022-09-09T13:13:15;25.60;83.60
40077;DHT22;25777;47.824;18.982;2022-09-09T13:15:47;25.50;84.60
40077;DHT22;25777;47.824;18.982;2022-09-09T13:18:14;25.40;88.20
40077;DHT22;25777;47.824;18.982;2022-09-09T13:20:45;25.40;83.30
40077;DHT22;25777;47.824;18.982;2022-09-09T13:23:11;25.70;87.00
40077;DHT22;25777;47.824;18.982;2022-09-09T13:25:37;25.80;82.90
40077;DHT22;25777;47.824;18.982;2022-09-09T13:28:04;25.80;81.70
40077;DHT22;25777;47.824;18.982;2022-09-09T13:30:34;25.80;84.40
40077;DHT22;25777;47.824;18.982;2022-09-09T13:38:17;25.50;86.10
40077;DHT22;25777;47.824;18.982;2022-09-09T13:40:59;25.30;89.10
40077;DHT22;25777;47.824;18.982;2022-09-09T13:43:27;25.30;87.30
40077;DHT22;25777;47.824;18.982;2022-09-09T13:45:55;25.40;78.70
40077;DHT22;25777;47.824;18.982;2022-09-09T13:48:22;25.40;90.20
40077;DHT22;25777;47.824;18.982;2022-09-09T13:51:26;25.40;84.30
40077;DHT22;25777;47.824;18.982;2022-09-09T13:53:40;25.40;82.70
40077;DHT22;25777;47.824;18.982;2022-09-09T13:56:05;25.40;79.80
40077;DHT22;25777;47.824;18.982;2022-09-09T13:58:31;25.40;89.70
40077;DHT22;25777;47.824;18.982;2022-09-09T14:00:57;25.30;81.70
40077;DHT22;25777;47.824;18.982;2022-09-09T14:03:22;25.50;77.70
40077;DHT22;25777;47.824;18.982;2022-09-09T14:05:48;25.50;73.00
40077;DHT22;25777;47.824;18.982;2022-09-09T14:08:16;25.60;83.20
40077;DHT22;25777;47.824;18.982;2022-09-09T14:10:44;25.50;72.10
40077;DHT22;25777;47.824;18.982;2022-09-09T14:13:09;25.60;76.60
40077;DHT22;25777;47.824;18.982;2022-09-09T14:15:36;25.50;69.70
40077;DHT22;25777;47.824;18.982;2022-09-09T14:18:01;25.70;72.30
40077;DHT22;25777;47.824;18.982;2022-09-09T14:20:27;25.90;82.00
40077;DHT22;25777;47.824;18.982;2022-09-09T14:22:53;25.90;88.60
40077;DHT22;25777;47.824;18.982;2022-09-09T14:25:19;25.90;73.00
40077;DHT22;25777;47.824;18.982;2022-09-09T14:27:45;25.80;77.20
40077;DHT22;25777;47.824;18.982;2022-09-09T14:30:11;25.60;80.30
40077;DHT22;25777;47.824;18.982;2022-09-09T14:32:37;25.70;78.70
40077;DHT22;25777;47.824;18.982;2022-09-09T14:35:03;25.90;80.30
40077;DHT22;25777;47.824;18.982;2022-09-09T14:37:29;25.90;73.90
40077;DHT22;25777;47.824;18.982;2022-09-09T14:39:56;25.80;71.30
40077;DHT22;25777;47.824;18.982;2022-09-09T14:42:22;25.90;73.00
40077;DHT22;25777;47.824;18.982;2022-09-09T14:44:48;25.50;75.10
40077;DHT22;25777;47.824;18.982;2022-09-09T14:47:14;25.30;76.20
40077;DHT22;25777;47.824;18.982;2022-09-09T14:49:40;24.80;79.30
40077;DHT22;25777;47.824;18.982;2022-09-09T14:52:05;24.70;77.70
40077;DHT22;25777;47.824;18.982;2022-09-09T14:54:31;24.70;79.40
40077;DHT22;25777;47.824;18.982;2022-09-09T14:56:57;24.50;85.50
40077;DHT22;25777;47.824;18.982;2022-09-09T14:59:23;24.30;90.40
40077;DHT22;25777;47.824;18.982;2022-09-09T15:01:49;24.20;91.00
40077;DHT22;25777;47.824;18.982;2022-09-09T15:04:15;24.10;91.40
40077;DHT22;25777;47.824;18.982;2022-09-09T15:06:42;24.10;91.50
40077;DHT22;25777;47.824;18.982;2022-09-09T15:09:11;24.00;91.00
40077;DHT22;25777;47.824;18.982;2022-09-09T15:11:38;24.00;90.30
40077;DHT22;25777;47.824;18.982;2022-09-09T15:14:04;24.10;90.60
40077;DHT22;25777;47.824;18.982;2022-09-09T15:16:30;24.00;91.10
40077;DHT22;25777;47.824;18.982;2022-09-09T15:18:58;24.10;91.80
40077;DHT22;25777;47.824;18.982;2022-09-09T15:21:25;24.20;91.80
40077;DHT22;25777;47.824;18.982;2022-09-09T15:23:52;24.10;91.00
40077;DHT22;25777;47.824;18.982;2022-09-09T15:26:18;24.00;95.30
40077;DHT22;25777;47.824;18.982;2022-09-09T15:28:44;23.90;94.40
40077;DHT22;25777;47.824;18.982;2022-09-09T15:31:12;24.00;85.50
40077;DHT22;25777;47.824;18.982;2022-09-09T15:33:39;24.10;91.30
40077;DHT22;25777;47.824;18.982;2022-09-09T15:36:19;23.90;94.90
40077;DHT22;25777;47.824;18.982;2022-09-09T15:38:45;23.80;94.90
40077;DHT22;25777;47.824;18.982;2022-09-09T15:41:11;23.70;96.20
40077;DHT22;25777;47.824;18.982;2022-09-09T15:43:38;23.60;96.60
40077;DHT22;25777;47.824;18.982;2022-09-09T15:46:23;23.50;96.40
40077;DHT22;25777;47.824;18.982;2022-09-09T15:48:50;23.50;96.10
40077;DHT22;25777;47.824;18.982;2022-09-09T15:51:16;23.50;96.00
40077;DHT22;25777;47.824;18.982;2022-09-09T15:53:44;23.50;96.20
40077;DHT22;25777;47.824;18.982;2022-09-09T15:56:10;23.40;96.40
40077;DHT22;25777;47.824;18.982;2022-09-09T15:58:37;23.30;96.60
40077;DHT22;25777;47.824;18.982;2022-09-09T16:01:03;23.20;96.80
40077;DHT22;25777;47.824;18.982;2022-09-09T16:03:39;23.20;96.80
40077;DHT22;25777;47.824;18.982;2022-09-09T16:06:07;22.90;97.10
40077;DHT22;25777;47.824;18.982;2022-09-09T16:08:33;23.00;97.20
40077;DHT22;25777;47.824;18.982;2022-09-09T16:11:07;22.80;98.00
40077;DHT22;25777;47.824;18.982;2022-09-09T16:13:37;22.70;98.90
40077;DHT22;25777;47.824;18.982;2022-09-09T16:16:05;22.60;99.60
40077;DHT22;25777;47.824;18.982;2022-09-09T16:18:38;22.60;99.90
40077;DHT22;25777;47.824;18.982;2022-09-09T16:21:04;22.40;99.90
40077;DHT22;25777;47.824;18.982;2022-09-09T16:23:36;22.40;99.90
40077;DHT22;25777;47.824;18.982;2022-09-09T16:26:02;22.40;99.90
40077;DHT22;25777;47.824;18.982;2022-09-09T16:28:28;22.30;99.90
40077;DHT22;25777;47.824;18.982;2022-09-09T16:30:54;22.20;99.90
40077;DHT22;25777;47.824;18.982;2022-09-09T16:33:20;22.20;99.90
40077;DHT22;25777;47.824;18.982;2022-09-09T16:35:45;22.10;99.90
40077;DHT22;25777;47.824;18.982;2022-09-09T16:38:11;22.10;99.90
40077;DHT22;25777;47.824;18.982;2022-09-09T16:40:37;22.00;99.90
40077;DHT22;25777;47.824;18.982;2022-09-09T16:43:03;21.90;99.90
40077;DHT22;25777;47.824;18.982;2022-09-09T16:45:29;22.00;99.90
40077;DHT22;25777;47.824;18.982;2022-09-09T16:47:56;22.10;99.90
40077;DHT22;25777;47.824;18.982;2022-09-09T16:50:21;21.90;99.90
40077;DHT22;25777;47.824;18.982;2022-09-09T16:52:47;21.70;99.90
40077;DHT22;25777;47.824;18.982;2022-09-09T16:55:13;21.60;99.90
40077;DHT22;25777;47.824;18.982;2022-09-09T16:57:39;21.50;99.90
40077;DHT22;25777;47.824;18.982;2022-09-09T17:00:07;21.50;99.90
40077;DHT22;25777;47.824;18.982;2022-09-09T17:02:33;21.40;99.90
40077;DHT22;25777;47.824;18.982;2022-09-09T17:04:59;21.40;99.90
40077;DHT22;25777;47.824;18.982;2022-09-09T17:07:25;21.40;99.90
40077;DHT22;25777;47.824;18.982;2022-09-09T17:09:51;21.40;99.90